<?xml version="1.0" encoding="UTF-8"?><gpx version="1.0"><name>FlightAirMap GPX Feed</name><trk><name>AAL20 American Airlines | N717AN B777-300ER (B77W) | KDFW - EGLL</name><number>1</number><trkseg><trkpt lat="32.9001" lon="-97.0442"><ele>686.27</ele><time>2026-04-28T05:16:58+00:00</time></trkpt><trkpt lat="32.9001" lon="-97.0442"><ele>686.27</ele><time>2026-04-28T05:16:58+00:00</time></trkpt><trkpt lat="32.9008" lon="-97.0437"><ele>603.63</ele><time>2026-04-28T05:29:36+00:00</time></trkpt><trkpt lat="32.9101" lon="-97.0365"><ele>595.5</ele><time>2026-04-28T05:34:47+00:00</time></trkpt><trkpt lat="32.8286" lon="-97.0172"><ele>3311.72</ele><time>2026-04-28T05:39:56+00:00</time></trkpt><trkpt lat="32.9362" lon="-96.809"><ele>10974.7</ele><time>2026-04-28T05:44:35+00:00</time></trkpt><trkpt lat="33.0997" lon="-96.8123"><ele>14859.8</ele><time>2026-04-28T05:49:39+00:00</time></trkpt><trkpt lat="33.7041" lon="-96.6606"><ele>26508.1</ele><time>2026-04-28T05:54:44+00:00</time></trkpt><trkpt lat="34.3426" lon="-96.2003"><ele>34153.9</ele><time>2026-04-28T05:59:53+00:00</time></trkpt><trkpt lat="34.9555" lon="-95.662"><ele>34994.4</ele><time>2026-04-28T06:05:03+00:00</time></trkpt><trkpt lat="35.502" lon="-95.0162"><ele>34999.8</ele><time>2026-04-28T06:09:44+00:00</time></trkpt><trkpt lat="36.0429" lon="-94.368"><ele>34998.9</ele><time>2026-04-28T06:14:50+00:00</time></trkpt><trkpt lat="36.2543" lon="-93.5147"><ele>34994.8</ele><time>2026-04-28T06:19:55+00:00</time></trkpt><trkpt lat="36.2612" lon="-92.5588"><ele>34998.4</ele><time>2026-04-28T06:24:59+00:00</time></trkpt><trkpt lat="36.2606" lon="-91.6086"><ele>34995.1</ele><time>2026-04-28T06:30:04+00:00</time></trkpt><trkpt lat="36.2528" lon="-90.685"><ele>34997.4</ele><time>2026-04-28T06:34:37+00:00</time></trkpt><trkpt lat="36.2385" lon="-89.7905"><ele>35003.7</ele><time>2026-04-28T06:39:43+00:00</time></trkpt><trkpt lat="36.2175" lon="-88.897"><ele>34996.1</ele><time>2026-04-28T06:44:47+00:00</time></trkpt><trkpt lat="36.1899" lon="-88.0021"><ele>34994.5</ele><time>2026-04-28T06:49:51+00:00</time></trkpt><trkpt lat="36.1554" lon="-87.1041"><ele>35006.5</ele><time>2026-04-28T06:54:55+00:00</time></trkpt><trkpt lat="36.2875" lon="-86.2187"><ele>35000.6</ele><time>2026-04-28T07:00:04+00:00</time></trkpt><trkpt lat="36.5584" lon="-85.3603"><ele>35002.5</ele><time>2026-04-28T07:04:44+00:00</time></trkpt><trkpt lat="36.8229" lon="-84.4965"><ele>34998.8</ele><time>2026-04-28T07:09:54+00:00</time></trkpt><trkpt lat="37.0787" lon="-83.6354"><ele>35005.1</ele><time>2026-04-28T07:15:01+00:00</time></trkpt><trkpt lat="37.328" lon="-82.7691"><ele>35014.8</ele><time>2026-04-28T07:19:35+00:00</time></trkpt><trkpt lat="37.5719" lon="-81.8937"><ele>35010.7</ele><time>2026-04-28T07:24:40+00:00</time></trkpt><trkpt lat="37.7949" lon="-81.0035"><ele>35001.1</ele><time>2026-04-28T07:29:44+00:00</time></trkpt><trkpt lat="37.9574" lon="-80.1003"><ele>35009.5</ele><time>2026-04-28T07:34:48+00:00</time></trkpt><trkpt lat="38.2285" lon="-79.2354"><ele>34994.4</ele><time>2026-04-28T07:39:52+00:00</time></trkpt><trkpt lat="38.4931" lon="-78.365"><ele>34992.3</ele><time>2026-04-28T07:44:58+00:00</time></trkpt><trkpt lat="38.8507" lon="-77.582"><ele>35016.3</ele><time>2026-04-28T07:49:37+00:00</time></trkpt><trkpt lat="39.0713" lon="-76.6956"><ele>35000.2</ele><time>2026-04-28T07:54:46+00:00</time></trkpt><trkpt lat="39.3057" lon="-75.8085"><ele>34996.3</ele><time>2026-04-28T07:59:55+00:00</time></trkpt><trkpt lat="39.7563" lon="-75.1328"><ele>34999.4</ele><time>2026-04-28T08:04:33+00:00</time></trkpt><trkpt lat="40.2072" lon="-74.4679"><ele>35002.3</ele><time>2026-04-28T08:09:43+00:00</time></trkpt><trkpt lat="40.4375" lon="-73.5904"><ele>35007.4</ele><time>2026-04-28T08:14:51+00:00</time></trkpt><trkpt lat="40.6567" lon="-72.7177"><ele>35003.1</ele><time>2026-04-28T08:19:55+00:00</time></trkpt><trkpt lat="40.8732" lon="-71.8556"><ele>35009.6</ele><time>2026-04-28T08:24:59+00:00</time></trkpt><trkpt lat="41.079" lon="-71.0086"><ele>35001.3</ele><time>2026-04-28T08:30:03+00:00</time></trkpt><trkpt lat="41.2549" lon="-70.1605"><ele>35014.9</ele><time>2026-04-28T08:34:38+00:00</time></trkpt><trkpt lat="41.6535" lon="-69.5559"><ele>34998.1</ele><time>2026-04-28T08:39:42+00:00</time></trkpt><trkpt lat="42.1007" lon="-68.9786"><ele>35003.6</ele><time>2026-04-28T08:44:46+00:00</time></trkpt><trkpt lat="42.556" lon="-68.3783"><ele>35008.4</ele><time>2026-04-28T08:49:50+00:00</time></trkpt><trkpt lat="43.0209" lon="-67.7516"><ele>34999.8</ele><time>2026-04-28T08:54:55+00:00</time></trkpt><trkpt lat="43.4867" lon="-67.1095"><ele>34995.6</ele><time>2026-04-28T09:00:00+00:00</time></trkpt><trkpt lat="43.9173" lon="-66.4041"><ele>36994.7</ele><time>2026-04-28T09:04:34+00:00</time></trkpt><trkpt lat="46.3937" lon="-61.8231"><ele>37014.8</ele><time>2026-04-28T09:34:45+00:00</time></trkpt><trkpt lat="46.7899" lon="-61.0162"><ele>37000.1</ele><time>2026-04-28T09:39:49+00:00</time></trkpt><trkpt lat="47.1797" lon="-60.1984"><ele>37008</ele><time>2026-04-28T09:44:54+00:00</time></trkpt><trkpt lat="47.5647" lon="-59.3665"><ele>36998.4</ele><time>2026-04-28T09:49:58+00:00</time></trkpt><trkpt lat="47.9432" lon="-58.523"><ele>36996.1</ele><time>2026-04-28T09:55:04+00:00</time></trkpt><trkpt lat="48.3128" lon="-57.6734"><ele>37008.4</ele><time>2026-04-28T09:59:38+00:00</time></trkpt><trkpt lat="48.6758" lon="-56.8124"><ele>37000.9</ele><time>2026-04-28T10:04:43+00:00</time></trkpt><trkpt lat="49.0338" lon="-55.9348"><ele>36998.7</ele><time>2026-04-28T10:09:49+00:00</time></trkpt><trkpt lat="49.3985" lon="-55.0102"><ele>36996.3</ele><time>2026-04-28T10:14:53+00:00</time></trkpt><trkpt lat="49.7588" lon="-54.0636"><ele>36998.6</ele><time>2026-04-28T10:19:57+00:00</time></trkpt><trkpt lat="50.1145" lon="-53.0939"><ele>37000.2</ele><time>2026-04-28T10:25:01+00:00</time></trkpt><trkpt lat="50.4671" lon="-52.0953"><ele>36996.9</ele><time>2026-04-28T10:29:36+00:00</time></trkpt><trkpt lat="50.7501" lon="-51.0221"><ele>37001.6</ele><time>2026-04-28T10:34:40+00:00</time></trkpt><trkpt lat="51.0188" lon="-49.9234"><ele>37008.9</ele><time>2026-04-28T10:39:45+00:00</time></trkpt><trkpt lat="51.2925" lon="-48.8124"><ele>37002.3</ele><time>2026-04-28T10:44:49+00:00</time></trkpt><trkpt lat="51.5542" lon="-47.6923"><ele>37005.2</ele><time>2026-04-28T10:49:54+00:00</time></trkpt><trkpt lat="51.806" lon="-46.5548"><ele>36997.3</ele><time>2026-04-28T10:54:58+00:00</time></trkpt><trkpt lat="52.0463" lon="-45.4072"><ele>37002.5</ele><time>2026-04-28T11:00:04+00:00</time></trkpt><trkpt lat="52.276" lon="-44.2441"><ele>36996.6</ele><time>2026-04-28T11:04:38+00:00</time></trkpt><trkpt lat="52.4944" lon="-43.0674"><ele>36995.6</ele><time>2026-04-28T11:09:43+00:00</time></trkpt><trkpt lat="52.7008" lon="-41.8806"><ele>36995.9</ele><time>2026-04-28T11:14:47+00:00</time></trkpt><trkpt lat="52.8951" lon="-40.6838"><ele>36994.3</ele><time>2026-04-28T11:19:51+00:00</time></trkpt><trkpt lat="53.0742" lon="-39.4791"><ele>36969.5</ele><time>2026-04-28T11:24:55+00:00</time></trkpt><trkpt lat="53.2375" lon="-38.2652"><ele>36999.2</ele><time>2026-04-28T11:30:00+00:00</time></trkpt><trkpt lat="53.3877" lon="-37.0476"><ele>37000.7</ele><time>2026-04-28T11:34:34+00:00</time></trkpt><trkpt lat="53.5253" lon="-35.8232"><ele>36999.9</ele><time>2026-04-28T11:39:38+00:00</time></trkpt><trkpt lat="53.6485" lon="-34.6094"><ele>37001</ele><time>2026-04-28T11:44:43+00:00</time></trkpt><trkpt lat="53.7594" lon="-33.3885"><ele>36998.9</ele><time>2026-04-28T11:49:48+00:00</time></trkpt><trkpt lat="53.8575" lon="-32.1674"><ele>37001.1</ele><time>2026-04-28T11:54:53+00:00</time></trkpt><trkpt lat="53.943" lon="-30.9416"><ele>36999.3</ele><time>2026-04-28T11:59:58+00:00</time></trkpt><trkpt lat="54.0118" lon="-29.7117"><ele>36982.6</ele><time>2026-04-28T12:05:03+00:00</time></trkpt><trkpt lat="54.0533" lon="-28.4884"><ele>36992.8</ele><time>2026-04-28T12:09:37+00:00</time></trkpt><trkpt lat="54.082" lon="-27.2926"><ele>37390.8</ele><time>2026-04-28T12:14:42+00:00</time></trkpt><trkpt lat="54.0991" lon="-26.0621"><ele>37002.1</ele><time>2026-04-28T12:19:46+00:00</time></trkpt><trkpt lat="54.1037" lon="-24.8366"><ele>37002.1</ele><time>2026-04-28T12:24:50+00:00</time></trkpt><trkpt lat="54.0959" lon="-23.6186"><ele>37000.8</ele><time>2026-04-28T12:29:55+00:00</time></trkpt><trkpt lat="54.0761" lon="-22.414"><ele>37001</ele><time>2026-04-28T12:34:59+00:00</time></trkpt><trkpt lat="54.0444" lon="-21.2172"><ele>36999.9</ele><time>2026-04-28T12:40:04+00:00</time></trkpt><trkpt lat="54.0004" lon="-20.0249"><ele>36998.4</ele><time>2026-04-28T12:44:37+00:00</time></trkpt><trkpt lat="53.8025" lon="-18.9045"><ele>36999.4</ele><time>2026-04-28T12:49:42+00:00</time></trkpt><trkpt lat="53.5901" lon="-17.7934"><ele>37000.6</ele><time>2026-04-28T12:54:46+00:00</time></trkpt><trkpt lat="53.3673" lon="-16.6929"><ele>36999.9</ele><time>2026-04-28T12:59:50+00:00</time></trkpt><trkpt lat="53.1366" lon="-15.6135"><ele>39000.4</ele><time>2026-04-28T13:04:55+00:00</time></trkpt><trkpt lat="53.001" lon="-14.5144"><ele>38999.8</ele><time>2026-04-28T13:10:00+00:00</time></trkpt><trkpt lat="53.0541" lon="-13.4016"><ele>38997</ele><time>2026-04-28T13:14:35+00:00</time></trkpt><trkpt lat="53.1449" lon="-12.3077"><ele>39007.7</ele><time>2026-04-28T13:19:40+00:00</time></trkpt><trkpt lat="53.2241" lon="-11.2313"><ele>39004.6</ele><time>2026-04-28T13:24:45+00:00</time></trkpt><trkpt lat="53.2929" lon="-10.1634"><ele>39000.1</ele><time>2026-04-28T13:29:49+00:00</time></trkpt><trkpt lat="53.3517" lon="-9.10046"><ele>38994.6</ele><time>2026-04-28T13:34:54+00:00</time></trkpt><trkpt lat="53.4006" lon="-8.04595"><ele>39000.4</ele><time>2026-04-28T13:39:59+00:00</time></trkpt><trkpt lat="53.44" lon="-6.99208"><ele>38997.8</ele><time>2026-04-28T13:45:03+00:00</time></trkpt><trkpt lat="53.4702" lon="-5.93726"><ele>38999.4</ele><time>2026-04-28T13:49:37+00:00</time></trkpt><trkpt lat="53.4332" lon="-4.09249"><ele>37016.5</ele><time>2026-04-28T13:55:01+00:00</time></trkpt><trkpt lat="53.4223" lon="-3.82816"><ele>37000.1</ele><time>2026-04-28T13:59:36+00:00</time></trkpt><trkpt lat="53.1879" lon="-2.83321"><ele>36745.2</ele><time>2026-04-28T14:04:41+00:00</time></trkpt><trkpt lat="52.7195" lon="-1.98006"><ele>26970.4</ele><time>2026-04-28T14:09:46+00:00</time></trkpt><trkpt lat="51.9608" lon="-1.11122"><ele>15066.2</ele><time>2026-04-28T14:14:50+00:00</time></trkpt><trkpt lat="51.7785" lon="-0.71942"><ele>8239.12</ele><time>2026-04-28T14:19:57+00:00</time></trkpt><trkpt lat="51.8231" lon="-0.58632"><ele>8002.52</ele><time>2026-04-28T14:24:35+00:00</time></trkpt><trkpt lat="51.5841" lon="-0.90278"><ele>6772.66</ele><time>2026-04-28T14:29:41+00:00</time></trkpt><trkpt lat="51.4766" lon="-0.72475"><ele>3102.09</ele><time>2026-04-28T14:34:49+00:00</time></trkpt><trkpt lat="51.4739" lon="-0.36873"><ele>1673.33</ele><time>2026-04-28T14:39:56+00:00</time></trkpt><trkpt lat="51.4791" lon="0.0088"><ele>2977.12</ele><time>2026-04-28T14:45:03+00:00</time></trkpt><trkpt lat="51.6341" lon="-0.04231"><ele>3011.71</ele><time>2026-04-28T14:49:34+00:00</time></trkpt><trkpt lat="51.6074" lon="-0.5216"><ele>3015.18</ele><time>2026-04-28T14:54:39+00:00</time></trkpt><trkpt lat="51.4769" lon="-0.64168"><ele>2080.46</ele><time>2026-04-28T14:59:46+00:00</time></trkpt><trkpt lat="51.4752" lon="-0.46443"><ele>116.86</ele><time>2026-04-28T15:04:54+00:00</time></trkpt><trkpt lat="32.8983" lon="-97.0457"><ele>445.41</ele><time>2026-05-03T03:59:36+00:00</time></trkpt><trkpt lat="32.8983" lon="-97.0457"><ele>436.22</ele><time>2026-05-03T04:04:44+00:00</time></trkpt><trkpt lat="32.8983" lon="-97.0457"><ele>436.12</ele><time>2026-05-03T04:06:29+00:00</time></trkpt><trkpt lat="32.8983" lon="-97.0457"><ele>436.12</ele><time>2026-05-03T04:06:29+00:00</time></trkpt><trkpt lat="32.8983" lon="-97.0457"><ele>436.05</ele><time>2026-05-03T04:19:48+00:00</time></trkpt><trkpt lat="32.8983" lon="-97.0457"><ele>436.05</ele><time>2026-05-03T04:24:56+00:00</time></trkpt><trkpt lat="32.899" lon="-97.0471"><ele>435.89</ele><time>2026-05-03T04:29:37+00:00</time></trkpt><trkpt lat="32.8817" lon="-97.0509"><ele>429.17</ele><time>2026-05-03T04:34:40+00:00</time></trkpt><trkpt lat="33.1773" lon="-97.0467"><ele>9756.51</ele><time>2026-05-03T04:39:51+00:00</time></trkpt><trkpt lat="33.4243" lon="-96.8448"><ele>16620.8</ele><time>2026-05-03T04:44:56+00:00</time></trkpt><trkpt lat="33.9742" lon="-96.4861"><ele>27787.8</ele><time>2026-05-03T04:50:01+00:00</time></trkpt><trkpt lat="34.5727" lon="-96.0112"><ele>34993.3</ele><time>2026-05-03T04:54:36+00:00</time></trkpt><trkpt lat="35.0848" lon="-95.5074"><ele>34998.9</ele><time>2026-05-03T04:59:40+00:00</time></trkpt><trkpt lat="35.576" lon="-94.9283"><ele>35003</ele><time>2026-05-03T05:04:45+00:00</time></trkpt><trkpt lat="36.0622" lon="-94.3446"><ele>35006.2</ele><time>2026-05-03T05:09:50+00:00</time></trkpt><trkpt lat="36.55" lon="-93.7691"><ele>35007.4</ele><time>2026-05-03T05:14:55+00:00</time></trkpt><trkpt lat="37.0359" lon="-93.1981"><ele>34992.9</ele><time>2026-05-03T05:19:59+00:00</time></trkpt><trkpt lat="37.5158" lon="-92.6235"><ele>35008.2</ele><time>2026-05-03T05:24:34+00:00</time></trkpt><trkpt lat="37.9909" lon="-92.0441"><ele>35006.9</ele><time>2026-05-03T05:29:40+00:00</time></trkpt><trkpt lat="38.4605" lon="-91.4605"><ele>35003.3</ele><time>2026-05-03T05:34:45+00:00</time></trkpt><trkpt lat="38.9256" lon="-90.8711"><ele>35011.7</ele><time>2026-05-03T05:39:49+00:00</time></trkpt><trkpt lat="39.3852" lon="-90.2774"><ele>35001.7</ele><time>2026-05-03T05:44:53+00:00</time></trkpt><trkpt lat="39.8377" lon="-89.6692"><ele>34999.8</ele><time>2026-05-03T05:49:57+00:00</time></trkpt><trkpt lat="40.0729" lon="-88.8246"><ele>35024</ele><time>2026-05-03T05:55:02+00:00</time></trkpt><trkpt lat="40.298" lon="-87.9712"><ele>35007.3</ele><time>2026-05-03T05:59:36+00:00</time></trkpt><trkpt lat="40.5165" lon="-87.1136"><ele>35001</ele><time>2026-05-03T06:04:41+00:00</time></trkpt><trkpt lat="40.7299" lon="-86.2451"><ele>35000.8</ele><time>2026-05-03T06:09:45+00:00</time></trkpt><trkpt lat="40.938" lon="-85.3655"><ele>35008.1</ele><time>2026-05-03T06:14:50+00:00</time></trkpt><trkpt lat="41.1058" lon="-84.4641"><ele>34999</ele><time>2026-05-03T06:19:54+00:00</time></trkpt><trkpt lat="41.2579" lon="-83.5547"><ele>34997.9</ele><time>2026-05-03T06:24:58+00:00</time></trkpt><trkpt lat="41.4033" lon="-82.6389"><ele>34999.6</ele><time>2026-05-03T06:30:03+00:00</time></trkpt><trkpt lat="41.5691" lon="-81.7268"><ele>34998.7</ele><time>2026-05-03T06:34:37+00:00</time></trkpt><trkpt lat="41.79" lon="-80.832"><ele>34997.1</ele><time>2026-05-03T06:39:42+00:00</time></trkpt><trkpt lat="42.0052" lon="-79.9252"><ele>35006.8</ele><time>2026-05-03T06:44:46+00:00</time></trkpt><trkpt lat="42.2244" lon="-79.016"><ele>34995.1</ele><time>2026-05-03T06:49:50+00:00</time></trkpt><trkpt lat="42.5253" lon="-78.1385"><ele>34997.9</ele><time>2026-05-03T06:54:55+00:00</time></trkpt><trkpt lat="42.819" lon="-77.2503"><ele>34999.4</ele><time>2026-05-03T07:00:00+00:00</time></trkpt><trkpt lat="43.1141" lon="-76.348"><ele>35001.9</ele><time>2026-05-03T07:04:34+00:00</time></trkpt><trkpt lat="43.4531" lon="-75.466"><ele>34993.4</ele><time>2026-05-03T07:09:38+00:00</time></trkpt><trkpt lat="43.7959" lon="-74.5733"><ele>35000.7</ele><time>2026-05-03T07:14:44+00:00</time></trkpt><trkpt lat="44.1336" lon="-73.665"><ele>35004.6</ele><time>2026-05-03T07:19:50+00:00</time></trkpt><trkpt lat="44.4661" lon="-72.7407"><ele>35013.6</ele><time>2026-05-03T07:24:55+00:00</time></trkpt><trkpt lat="44.7954" lon="-71.7933"><ele>34996.8</ele><time>2026-05-03T07:29:59+00:00</time></trkpt><trkpt lat="45.3694" lon="-71.0908"><ele>34999.3</ele><time>2026-05-03T07:35:04+00:00</time></trkpt><trkpt lat="45.7611" lon="-70.1575"><ele>35001.1</ele><time>2026-05-03T07:39:38+00:00</time></trkpt><trkpt lat="46.1238" lon="-69.1834"><ele>35006.6</ele><time>2026-05-03T07:44:42+00:00</time></trkpt><trkpt lat="46.4767" lon="-68.2002"><ele>34999.9</ele><time>2026-05-03T07:49:47+00:00</time></trkpt><trkpt lat="46.8218" lon="-67.2022"><ele>35000.3</ele><time>2026-05-03T07:54:51+00:00</time></trkpt><trkpt lat="47.0335" lon="-66.132"><ele>35002.4</ele><time>2026-05-03T07:59:56+00:00</time></trkpt><trkpt lat="47.2112" lon="-65.0504"><ele>34999.1</ele><time>2026-05-03T08:05:00+00:00</time></trkpt><trkpt lat="47.379" lon="-63.9605"><ele>35004</ele><time>2026-05-03T08:09:34+00:00</time></trkpt><trkpt lat="47.5356" lon="-62.8685"><ele>35004.7</ele><time>2026-05-03T08:14:41+00:00</time></trkpt><trkpt lat="47.6822" lon="-61.7681"><ele>35001.8</ele><time>2026-05-03T08:19:46+00:00</time></trkpt><trkpt lat="47.8193" lon="-60.6517"><ele>35000.8</ele><time>2026-05-03T08:24:51+00:00</time></trkpt><trkpt lat="47.9457" lon="-59.5283"><ele>34998.2</ele><time>2026-05-03T08:29:55+00:00</time></trkpt><trkpt lat="48.06" lon="-58.4105"><ele>35003.5</ele><time>2026-05-03T08:35:00+00:00</time></trkpt><trkpt lat="48.1621" lon="-57.3038"><ele>35003.6</ele><time>2026-05-03T08:40:04+00:00</time></trkpt><trkpt lat="48.2524" lon="-56.2063"><ele>35001.9</ele><time>2026-05-03T08:44:38+00:00</time></trkpt><trkpt lat="48.3322" lon="-55.1066"><ele>34998.8</ele><time>2026-05-03T08:49:44+00:00</time></trkpt><trkpt lat="48.4009" lon="-54.0143"><ele>35001.3</ele><time>2026-05-03T08:54:50+00:00</time></trkpt><trkpt lat="48.4589" lon="-52.9251"><ele>34990.5</ele><time>2026-05-03T09:00:00+00:00</time></trkpt><trkpt lat="48.5368" lon="-51.8539"><ele>35506.7</ele><time>2026-05-03T09:04:44+00:00</time></trkpt><trkpt lat="48.7923" lon="-50.8526"><ele>37011.6</ele><time>2026-05-03T09:09:54+00:00</time></trkpt><trkpt lat="49.0373" lon="-49.8506"><ele>36996.1</ele><time>2026-05-03T09:15:04+00:00</time></trkpt><trkpt lat="49.2822" lon="-48.8551"><ele>36997.9</ele><time>2026-05-03T09:19:38+00:00</time></trkpt><trkpt lat="49.5161" lon="-47.8585"><ele>36995.6</ele><time>2026-05-03T09:24:43+00:00</time></trkpt><trkpt lat="49.7412" lon="-46.8533"><ele>37000.2</ele><time>2026-05-03T09:29:48+00:00</time></trkpt><trkpt lat="49.9576" lon="-45.8384"><ele>36999.3</ele><time>2026-05-03T09:34:52+00:00</time></trkpt><trkpt lat="50.1654" lon="-44.8132"><ele>36999.4</ele><time>2026-05-03T09:39:56+00:00</time></trkpt><trkpt lat="50.3643" lon="-43.7779"><ele>37001.6</ele><time>2026-05-03T09:45:00+00:00</time></trkpt><trkpt lat="50.5548" lon="-42.7291"><ele>36998.6</ele><time>2026-05-03T09:49:35+00:00</time></trkpt><trkpt lat="50.7369" lon="-41.6655"><ele>36999.5</ele><time>2026-05-03T09:54:39+00:00</time></trkpt><trkpt lat="50.9092" lon="-40.5943"><ele>36999.6</ele><time>2026-05-03T09:59:44+00:00</time></trkpt><trkpt lat="51.069" lon="-39.5181"><ele>36999</ele><time>2026-05-03T10:04:48+00:00</time></trkpt><trkpt lat="51.215" lon="-38.4445"><ele>37002.3</ele><time>2026-05-03T10:09:53+00:00</time></trkpt><trkpt lat="51.3498" lon="-37.3752"><ele>37000.3</ele><time>2026-05-03T10:14:58+00:00</time></trkpt><trkpt lat="51.4735" lon="-36.3108"><ele>37005.5</ele><time>2026-05-03T10:20:03+00:00</time></trkpt><trkpt lat="51.5873" lon="-35.244"><ele>36998.9</ele><time>2026-05-03T10:24:37+00:00</time></trkpt><trkpt lat="51.6912" lon="-34.1729"><ele>36991.2</ele><time>2026-05-03T10:29:46+00:00</time></trkpt><trkpt lat="51.7855" lon="-33.0963"><ele>36999.3</ele><time>2026-05-03T10:34:58+00:00</time></trkpt><trkpt lat="51.8701" lon="-32.0119"><ele>36999.8</ele><time>2026-05-03T10:39:41+00:00</time></trkpt><trkpt lat="51.9449" lon="-30.9202"><ele>36999.3</ele><time>2026-05-03T10:44:54+00:00</time></trkpt><trkpt lat="52.0239" lon="-29.8296"><ele>37001.3</ele><time>2026-05-03T10:50:05+00:00</time></trkpt><trkpt lat="52.1738" lon="-28.7537"><ele>36999.9</ele><time>2026-05-03T10:54:48+00:00</time></trkpt><trkpt lat="52.3129" lon="-27.6718"><ele>36997.3</ele><time>2026-05-03T11:00:06+00:00</time></trkpt><trkpt lat="52.4422" lon="-26.5827"><ele>37002.5</ele><time>2026-05-03T11:04:51+00:00</time></trkpt><trkpt lat="52.5617" lon="-25.4852"><ele>36999.1</ele><time>2026-05-03T11:09:37+00:00</time></trkpt><trkpt lat="52.6703" lon="-24.3889"><ele>36997.9</ele><time>2026-05-03T11:14:50+00:00</time></trkpt><trkpt lat="52.7676" lon="-23.3013"><ele>36999.8</ele><time>2026-05-03T11:19:54+00:00</time></trkpt><trkpt lat="52.8546" lon="-22.2138"><ele>37020.3</ele><time>2026-05-03T11:24:58+00:00</time></trkpt><trkpt lat="52.9315" lon="-21.1226"><ele>36999.4</ele><time>2026-05-03T11:30:03+00:00</time></trkpt><trkpt lat="52.9985" lon="-20.0277"><ele>37003.8</ele><time>2026-05-03T11:34:38+00:00</time></trkpt><trkpt lat="53.0177" lon="-18.9255"><ele>36999</ele><time>2026-05-03T11:39:44+00:00</time></trkpt><trkpt lat="53.0257" lon="-17.8286"><ele>36998.3</ele><time>2026-05-03T11:44:50+00:00</time></trkpt><trkpt lat="53.0238" lon="-16.737"><ele>36999.9</ele><time>2026-05-03T11:49:56+00:00</time></trkpt><trkpt lat="53.0118" lon="-15.6493"><ele>36999.6</ele><time>2026-05-03T11:55:02+00:00</time></trkpt><trkpt lat="53.001" lon="-14.5661"><ele>37001.9</ele><time>2026-05-03T11:59:36+00:00</time></trkpt><trkpt lat="53.0214" lon="-13.4881"><ele>36999.6</ele><time>2026-05-03T12:04:50+00:00</time></trkpt><trkpt lat="53.0591" lon="-12.4113"><ele>36997.2</ele><time>2026-05-03T12:09:44+00:00</time></trkpt><trkpt lat="53.0871" lon="-11.3355"><ele>37004.2</ele><time>2026-05-03T12:15:02+00:00</time></trkpt><trkpt lat="53.1054" lon="-10.2553"><ele>37000.2</ele><time>2026-05-03T12:19:38+00:00</time></trkpt><trkpt lat="53.1375" lon="-9.17407"><ele>38089.4</ele><time>2026-05-03T12:24:44+00:00</time></trkpt><trkpt lat="53.2547" lon="-8.08696"><ele>39003</ele><time>2026-05-03T12:29:48+00:00</time></trkpt><trkpt lat="53.3629" lon="-6.98113"><ele>39000.4</ele><time>2026-05-03T12:34:53+00:00</time></trkpt><trkpt lat="53.4551" lon="-5.86646"><ele>38999.5</ele><time>2026-05-03T12:40:01+00:00</time></trkpt><trkpt lat="53.4571" lon="-4.74637"><ele>38999.9</ele><time>2026-05-03T12:44:35+00:00</time></trkpt><trkpt lat="53.4103" lon="-3.6265"><ele>39001.6</ele><time>2026-05-03T12:49:40+00:00</time></trkpt><trkpt lat="53.126" lon="-2.62423"><ele>38995.4</ele><time>2026-05-03T12:54:45+00:00</time></trkpt><trkpt lat="52.7019" lon="-1.96165"><ele>29713.6</ele><time>2026-05-03T12:59:51+00:00</time></trkpt><trkpt lat="52.1137" lon="-1.32304"><ele>17997.9</ele><time>2026-05-03T13:04:56+00:00</time></trkpt><trkpt lat="51.8646" lon="-0.83325"><ele>12636.7</ele><time>2026-05-03T13:10:02+00:00</time></trkpt><trkpt lat="51.6593" lon="-0.35991"><ele>8081.2</ele><time>2026-05-03T13:14:39+00:00</time></trkpt><trkpt lat="51.4714" lon="-0.10761"><ele>2987.25</ele><time>2026-05-03T13:19:46+00:00</time></trkpt><trkpt lat="51.4659" lon="-0.46838"><ele>94.07</ele><time>2026-05-03T13:24:58+00:00</time></trkpt><trkpt lat="51.4751" lon="-0.46453"><ele>90.66</ele><time>2026-05-03T13:29:38+00:00</time></trkpt></trkseg></trk></gpx>